Time;durP1;ratioP1;P1;durP2;ratioP2;P2;SDS_P1;SDS_P2;PMS_P1;PMS_P2;Temp;Humidity;BMP_temperature;BMP_pressure;BME280_temperature;BME280_humidity;BME280_pressure;Samples;Min_cycle;Max_cycle;Signal;HPM_P1;HPM_P2
2023/05/03 00:01:08;;;;;;;4.97;2.20;;;;;;;1.89;100.00;103093.13;5135483;27;20062;-78
2023/05/03 00:03:34;;;;;;;5.18;2.15;;;;;;;1.89;100.00;103087.03;5134019;27;20495;-80
2023/05/03 00:06:13;;;;;;;5.38;2.55;;;;;;;1.84;100.00;103089.72;5134677;27;20031;-80
2023/05/03 00:08:39;;;;;;;4.22;2.28;;;;;;;1.81;100.00;103089.78;5133143;27;20037;-80
2023/05/03 00:11:04;;;;;;;4.63;2.30;;;;;;;1.79;100.00;103099.44;5134340;27;20019;-80
2023/05/03 00:13:30;;;;;;;4.07;2.53;;;;;;;1.78;100.00;103095.09;5132473;27;20026;-80
2023/05/03 00:15:55;;;;;;;3.63;2.38;;;;;;;1.77;100.00;103094.22;5132634;27;20095;-80
2023/05/03 00:18:21;;;;;;;4.90;2.47;;;;;;;1.74;100.00;103099.50;5134109;27;20038;-80
2023/05/03 00:20:46;;;;;;;4.38;2.28;;;;;;;1.71;100.00;103096.94;5134239;27;20043;-80
2023/05/03 00:23:12;;;;;;;3.40;2.47;;;;;;;1.67;100.00;103087.41;5133959;27;20071;-80
2023/05/03 00:25:38;;;;;;;5.03;2.75;;;;;;;1.66;100.00;103087.44;5133978;27;20366;-80
2023/05/03 00:28:03;;;;;;;5.82;2.30;;;;;;;1.64;100.00;103086.59;5132217;27;20418;-80
2023/05/03 00:30:29;;;;;;;3.63;2.63;;;;;;;1.61;100.00;103090.13;5132143;27;20440;-80
2023/05/03 00:32:54;;;;;;;3.63;2.08;;;;;;;1.57;100.00;103097.19;5134102;27;20133;-80
2023/05/03 00:35:19;;;;;;;4.20;2.30;;;;;;;1.54;100.00;103094.63;5133650;27;20027;-80
2023/05/03 00:37:45;;;;;;;8.38;3.38;;;;;;;1.52;100.00;103091.16;5132429;27;20030;-80
2023/05/03 00:40:12;;;;;;;3.83;2.53;;;;;;;1.50;100.00;103092.06;5133721;27;20110;-80
2023/05/03 00:42:37;;;;;;;3.08;2.60;;;;;;;1.47;100.00;103094.75;5133552;27;20038;-81
2023/05/03 00:45:04;;;;;;;7.82;2.58;;;;;;;1.44;100.00;103093.03;5132434;27;20031;-80
2023/05/03 00:47:31;;;;;;;3.90;2.40;;;;;;;1.43;100.00;103098.31;5132206;27;20099;-81
2023/05/03 00:49:56;;;;;;;3.65;2.80;;;;;;;1.41;100.00;103101.81;5134035;27;20491;-81
2023/05/03 00:52:22;;;;;;;4.55;2.42;;;;;;;1.40;100.00;103102.72;5133622;27;20019;-80
2023/05/03 00:54:47;;;;;;;4.93;2.80;;;;;;;1.37;100.00;103100.16;5133577;27;20027;-80
2023/05/03 00:57:13;;;;;;;4.95;2.80;;;;;;;1.38;100.00;103103.63;5133058;27;20130;-79
2023/05/03 00:59:39;;;;;;;7.53;2.80;;;;;;;1.36;100.00;103103.66;5133826;27;20038;-80
2023/05/03 01:02:04;;;;;;;4.22;2.72;;;;;;;1.35;100.00;103112.41;5133999;27;20366;-80
2023/05/03 01:04:30;;;;;;;5.50;2.50;;;;;;;1.34;100.00;103110.66;5133770;27;20441;-80
2023/05/03 01:07:01;;;;;;;5.10;2.92;;;;;;;1.34;100.00;103113.28;5133242;27;20096;-79
2023/05/03 01:09:41;;;;;;;4.80;2.72;;;;;;;1.33;100.00;103111.56;5132977;27;20048;-80
2023/05/03 01:12:36;;;;;;;2.70;2.30;;;;;;;1.28;100.00;103110.75;5133220;27;20053;-80
2023/05/03 01:15:35;;;;;;;4.32;2.83;;;;;;;1.23;100.00;103102.09;5133202;27;20023;-80
2023/05/03 01:18:09;;;;;;;6.10;3.25;;;;;;;1.19;100.00;103103.88;5133537;27;20065;-81
2023/05/03 01:20:36;;;;;;;4.80;3.13;;;;;;;1.17;100.00;103103.06;5133079;27;20015;-80
2023/05/03 01:23:13;;;;;;;3.70;2.95;;;;;;;1.14;100.00;103103.09;5131506;27;20457;-79
2023/05/03 01:25:38;;;;;;;3.95;3.00;;;;;;;1.09;100.00;103097.06;5131560;27;20316;-79
2023/05/03 01:28:04;;;;;;;4.10;2.60;;;;;;;1.08;100.00;103091.84;5131470;27;20034;-80
2023/05/03 01:30:31;;;;;;;6.70;3.67;;;;;;;1.09;100.00;103097.06;5132758;27;20404;-80
2023/05/03 01:32:56;;;;;;;3.97;2.90;;;;;;;1.07;100.00;103090.09;5132988;27;20465;-81
2023/05/03 01:35:46;;;;;;;6.65;2.97;;;;;;;1.07;100.00;103090.09;5132692;27;20051;-81
2023/05/03 01:38:12;;;;;;;4.55;3.05;;;;;;;1.04;100.00;103073.50;5132654;27;20063;-80
2023/05/03 01:40:46;;;;;;;5.80;3.45;;;;;;;1.03;100.00;103068.28;5131586;27;20031;-79
2023/05/03 01:43:12;;;;;;;6.22;3.53;;;;;;;1.01;100.00;103068.31;5133009;27;20034;-79
2023/05/03 01:45:39;;;;;;;9.68;3.10;;;;;;;1.00;100.00;103069.22;5132750;27;20118;-79
2023/05/03 01:48:10;;;;;;;6.63;3.13;;;;;;;0.95;100.00;103071.03;5132430;27;20039;-80
2023/05/03 01:50:35;;;;;;;6.40;2.90;;;;;;;0.92;100.00;103055.34;5132236;27;20027;-79
2023/05/03 01:53:01;;;;;;;6.10;2.95;;;;;;;0.89;100.00;103047.53;5132930;27;20059;-81
2023/05/03 01:55:26;;;;;;;5.65;2.70;;;;;;;0.88;100.00;103040.53;5132669;27;20446;-79
2023/05/03 01:57:51;;;;;;;6.25;3.38;;;;;;;0.86;100.00;103034.47;5132948;27;20046;-80
2023/05/03 02:00:17;;;;;;;5.90;3.13;;;;;;;0.87;100.00;103028.34;5132720;27;20450;-81
2023/05/03 02:02:42;;;;;;;4.45;3.47;;;;;;;0.83;100.00;103024.88;5132821;27;20095;-80
2023/05/03 02:05:09;;;;;;;5.93;3.55;;;;;;;0.85;100.00;103019.63;5133323;27;20061;-80
2023/05/03 02:07:35;;;;;;;4.38;3.10;;;;;;;0.85;100.00;103017.00;5131850;27;20015;-81
2023/05/03 02:10:00;;;;;;;7.90;3.90;;;;;;;0.82;100.00;103020.56;5132498;27;20034;-81
2023/05/03 02:12:25;;;;;;;6.78;3.33;;;;;;;0.80;100.00;103027.56;5131194;27;20023;-81
2023/05/03 02:14:51;;;;;;;7.45;3.72;;;;;;;0.79;100.00;103032.81;5132726;27;20118;-80
2023/05/03 02:17:17;;;;;;;6.28;3.33;;;;;;;0.77;100.00;103037.22;5132480;27;20033;-81
2023/05/03 02:19:42;;;;;;;8.18;3.53;;;;;;;0.75;100.00;103041.59;5132905;27;20034;-80
2023/05/03 02:22:08;;;;;;;6.15;4.03;;;;;;;0.74;100.00;103042.53;5131261;27;20035;-80
2023/05/03 02:24:35;;;;;;;6.18;4.05;;;;;;;0.73;100.00;103048.63;5131658;27;20092;-80
2023/05/03 02:27:00;;;;;;;9.30;4.53;;;;;;;0.70;100.00;103044.28;5133369;27;20027;-81
2023/05/03 02:29:26;;;;;;;8.05;4.68;;;;;;;0.70;100.00;103050.44;5130847;27;20404;-80
2023/05/03 02:31:51;;;;;;;7.43;4.80;;;;;;;0.74;100.00;103066.09;5132382;27;20031;-81
2023/05/03 02:34:16;;;;;;;6.63;4.45;;;;;;;0.72;100.00;103070.47;5132248;27;20027;-81
2023/05/03 02:36:42;;;;;;;5.57;3.83;;;;;;;0.69;100.00;103066.16;5131875;27;20027;-80
2023/05/03 02:39:07;;;;;;;9.52;4.10;;;;;;;0.68;100.00;103067.06;5130602;27;20132;-80
2023/05/03 02:41:33;;;;;;;9.30;4.35;;;;;;;0.65;100.00;103067.09;5132155;27;20031;-81
2023/05/03 02:43:58;;;;;;;7.00;4.95;;;;;;;0.66;100.00;103074.94;5130936;27;20027;-81
2023/05/03 02:46:23;;;;;;;6.15;4.45;;;;;;;0.63;100.00;103074.97;5132374;27;20470;-80
2023/05/03 02:48:49;;;;;;;8.30;3.85;;;;;;;0.60;100.00;103066.28;5131618;27;20363;-81
2023/05/03 02:51:14;;;;;;;9.05;4.25;;;;;;;0.58;100.00;103065.44;5131923;27;20311;-81
2023/05/03 02:53:39;;;;;;;6.38;4.50;;;;;;;0.53;100.00;103066.34;5130742;27;20027;-81
2023/05/03 02:56:05;;;;;;;6.47;4.43;;;;;;;0.50;100.00;103071.63;5132391;27;20058;-81
2023/05/03 02:58:30;;;;;;;7.93;4.78;;;;;;;0.50;100.00;103078.63;5132308;27;20031;-80
2023/05/03 03:00:55;;;;;;;7.20;4.30;;;;;;;0.47;100.00;103076.06;5132109;28;20027;-80
2023/05/03 03:03:21;;;;;;;7.35;4.80;;;;;;;0.46;100.00;103072.59;5131664;27;20447;-81
2023/05/03 03:05:46;;;;;;;6.78;4.65;;;;;;;0.46;100.00;103090.03;5131511;28;20104;-81
2023/05/03 03:08:12;;;;;;;5.28;4.45;;;;;;;0.44;100.00;103090.03;5131735;27;20024;-80
2023/05/03 03:10:37;;;;;;;6.70;4.38;;;;;;;0.43;100.00;103092.69;5132414;28;20106;-81
2023/05/03 03:13:02;;;;;;;6.82;4.70;;;;;;;0.41;100.00;103090.09;5132190;27;20019;-80
2023/05/03 03:15:29;;;;;;;6.43;3.95;;;;;;;0.39;100.00;103096.22;5131778;27;20027;-80
2023/05/03 03:17:57;;;;;;;10.10;4.18;;;;;;;0.40;100.00;103090.09;5132217;27;20058;-80
2023/05/03 03:20:23;;;;;;;9.48;4.53;;;;;;;0.41;100.00;103091.84;5134866;27;20130;-80
2023/05/03 03:22:48;;;;;;;7.20;4.60;;;;;;;0.40;100.00;103087.50;5135824;27;20055;-80
2023/05/03 03:25:13;;;;;;;7.18;4.57;;;;;;;0.35;100.00;103080.53;5135505;27;20127;-80
2023/05/03 03:27:40;;;;;;;5.43;4.28;;;;;;;0.30;100.00;103079.75;5135433;27;20035;-80
2023/05/03 03:30:09;;;;;;;5.93;4.10;;;;;;;0.29;100.00;103075.38;5135881;27;20357;-81
2023/05/03 03:32:34;;;;;;;8.23;4.30;;;;;;;0.30;100.00;103076.25;5135410;27;20050;-81
2023/05/03 03:35:00;;;;;;;6.85;4.78;;;;;;;0.31;100.00;103077.97;5133778;27;20066;-81
2023/05/03 03:37:25;;;;;;;7.10;4.80;;;;;;;0.31;100.00;103077.97;5134979;27;20045;-80
2023/05/03 03:39:50;;;;;;;7.55;4.97;;;;;;;0.27;100.00;103098.13;5134662;27;20059;-80
2023/05/03 03:42:16;;;;;;;6.47;4.20;;;;;;;0.27;100.00;103091.97;5134770;27;20056;-80
2023/05/03 03:44:41;;;;;;;9.02;4.65;;;;;;;0.22;100.00;103099.91;5134915;27;20459;-81
2023/05/03 03:47:07;;;;;;;10.32;4.47;;;;;;;0.20;100.00;103101.69;5134763;27;20027;-81
2023/05/03 03:49:32;;;;;;;11.57;5.10;;;;;;;0.21;100.00;103106.03;5134861;27;20051;-81
2023/05/03 03:51:57;;;;;;;8.60;4.93;;;;;;;0.21;100.00;103102.53;5134822;27;20128;-79
2023/05/03 03:54:23;;;;;;;9.73;5.03;;;;;;;0.21;100.00;103107.78;5134462;27;20027;-79
2023/05/03 03:56:49;;;;;;;6.22;4.45;;;;;;;0.17;100.00;103106.94;5135057;27;20431;-81
2023/05/03 03:59:15;;;;;;;9.30;4.60;;;;;;;0.16;100.00;103110.44;5134803;27;20069;-79
2023/05/03 04:01:40;;;;;;;10.00;4.18;;;;;;;0.15;100.00;103120.06;5134530;27;20347;-80
2023/05/03 04:04:06;;;;;;;7.43;4.85;;;;;;;0.16;100.00;103121.81;5134645;27;20343;-79
2023/05/03 04:06:32;;;;;;;7.15;4.60;;;;;;;0.16;100.00;103116.56;5115863;27;20428;-80
2023/05/03 04:08:57;;;;;;;11.35;4.45;;;;;;;0.15;100.00;103120.06;5134412;27;20102;-79
2023/05/03 04:11:23;;;;;;;6.45;4.13;;;;;;;0.15;100.00;103121.78;5134440;27;20031;-80
2023/05/03 04:13:48;;;;;;;7.05;4.25;;;;;;;0.15;100.00;103113.94;5132853;27;20041;-79
2023/05/03 04:16:14;;;;;;;7.30;4.15;;;;;;;0.15;100.00;103117.44;5134345;27;20020;-80
2023/05/03 04:18:39;;;;;;;6.53;4.07;;;;;;;0.15;100.00;103114.81;5134447;27;20062;-80
2023/05/03 04:21:05;;;;;;;6.43;4.05;;;;;;;0.16;100.00;103110.44;5132879;27;20169;-81
2023/05/03 04:23:30;;;;;;;6.88;4.45;;;;;;;0.15;100.00;103109.59;5134413;27;20428;-80
2023/05/03 04:25:56;;;;;;;7.40;4.28;;;;;;;0.15;100.00;103106.97;5133020;27;20069;-80
2023/05/03 04:28:22;;;;;;;7.63;4.65;;;;;;;0.17;100.00;103106.94;5134296;27;20058;-80
2023/05/03 04:30:48;;;;;;;6.28;4.40;;;;;;;0.17;100.00;103105.19;5133727;27;20024;-80
2023/05/03 04:33:14;;;;;;;13.13;4.70;;;;;;;0.20;100.00;103112.16;5133477;27;20029;-80
2023/05/03 04:35:40;;;;;;;7.60;5.20;;;;;;;0.26;100.00;103108.59;5132959;27;20019;-81
2023/05/03 04:38:06;;;;;;;5.78;4.35;;;;;;;0.30;100.00;103103.31;5134483;27;20031;-80
2023/05/03 04:40:31;;;;;;;11.63;4.35;;;;;;;0.36;100.00;103102.38;5168242;27;20045;-80
2023/05/03 04:42:56;;;;;;;11.13;5.07;;;;;;;0.41;100.00;103102.31;5134206;27;20035;-81
2023/05/03 04:45:22;;;;;;;6.85;4.55;;;;;;;0.44;100.00;103103.16;5133925;27;20031;-81
2023/05/03 04:47:48;;;;;;;5.30;4.10;;;;;;;0.45;100.00;103097.03;5132882;27;20053;-80
2023/05/03 04:50:14;;;;;;;6.82;4.65;;;;;;;0.49;100.00;103101.34;5134381;27;20125;-80
2023/05/03 04:52:39;;;;;;;5.28;3.80;;;;;;;0.52;100.00;103113.53;5134396;27;20023;-81
2023/05/03 04:55:05;;;;;;;7.55;4.03;;;;;;;0.56;100.00;103110.00;5132442;27;20031;-80
2023/05/03 04:57:32;;;;;;;5.18;4.50;;;;;;;0.60;100.00;103105.56;5132473;27;20034;-80
2023/05/03 04:59:58;;;;;;;7.38;4.50;;;;;;;0.65;100.00;103107.25;5132339;27;20423;-79
2023/05/03 05:02:23;;;;;;;6.97;4.85;;;;;;;0.75;100.00;103104.50;5133446;27;20027;-80
2023/05/03 05:04:48;;;;;;;6.63;4.57;;;;;;;0.83;100.00;103111.38;5131801;27;20058;-80
2023/05/03 05:07:14;;;;;;;7.47;5.18;;;;;;;0.94;100.00;103119.13;5132919;27;20050;-80
2023/05/03 05:09:39;;;;;;;8.30;6.00;;;;;;;1.07;100.00;103111.09;5132504;27;20023;-81
2023/05/03 05:12:05;;;;;;;6.22;4.97;;;;;;;1.23;100.00;103120.47;5133573;27;20026;-80
2023/05/03 05:14:31;;;;;;;9.38;5.28;;;;;;;1.39;100.00;103115.88;5133416;27;20039;-83
2023/05/03 05:16:56;;;;;;;12.15;6.35;;;;;;;1.54;100.00;103115.59;5133513;27;20041;-81
2023/05/03 05:19:22;;;;;;;9.68;5.47;;;;;;;1.70;100.00;103116.22;5133934;27;20142;-82
2023/05/03 05:21:47;;;;;;;12.05;5.88;;;;;;;1.87;100.00;103122.94;5131862;27;20031;-82
2023/05/03 05:24:13;;;;;;;12.65;6.07;;;;;;;2.00;100.00;103126.22;5132914;27;20102;-83
2023/05/03 05:26:38;;;;;;;10.30;5.60;;;;;;;2.15;100.00;103127.69;5133468;27;20419;-82
2023/05/03 05:29:04;;;;;;;10.95;5.28;;;;;;;2.28;100.00;103137.97;5132861;27;20349;-82
2023/05/03 05:31:30;;;;;;;10.30;4.90;;;;;;;2.41;100.00;103140.34;5133248;27;20046;-82
2023/05/03 05:33:55;;;;;;;6.53;4.35;;;;;;;2.56;100.00;103136.56;5133426;27;20031;-81
2023/05/03 05:36:20;;;;;;;12.05;4.75;;;;;;;2.70;100.00;103131.00;5131746;27;20435;-81
2023/05/03 05:38:46;;;;;;;11.93;4.68;;;;;;;2.83;100.00;103133.31;5132334;27;20030;-81
2023/05/03 05:41:11;;;;;;;11.25;4.70;;;;;;;2.95;100.00;103137.47;5166864;27;20023;-82
2023/05/03 05:43:37;;;;;;;6.78;4.38;;;;;;;3.08;100.00;103135.44;5133819;27;20031;-83
2023/05/03 05:46:02;;;;;;;10.88;4.10;;;;;;;3.22;100.00;103127.22;5133661;27;20042;-81
2023/05/03 05:48:28;;;;;;;11.35;5.00;;;;;;;3.34;100.00;103128.72;5133453;27;20093;-80
2023/05/03 05:50:53;;;;;;;7.35;4.55;;;;;;;3.46;100.00;103130.19;5133581;27;20414;-81
2023/05/03 05:53:18;;;;;;;7.18;4.10;;;;;;;3.57;100.00;103128.16;5132991;27;20064;-80
2023/05/03 05:55:44;;;;;;;7.95;3.42;;;;;;;3.72;100.00;103132.19;5133970;27;20163;-82
2023/05/03 05:58:11;;;;;;;9.40;4.00;;;;;;;3.87;100.00;103128.31;5134022;27;20411;-81
2023/05/03 06:00:37;;;;;;;6.72;3.55;;;;;;;4.04;100.00;103126.06;5133094;27;20042;-81
2023/05/03 06:03:02;;;;;;;7.28;3.88;;;;;;;4.24;100.00;103136.09;5132616;27;20047;-80
2023/05/03 06:05:28;;;;;;;14.90;3.97;;;;;;;4.44;100.00;103137.31;5132256;27;20180;-79
2023/05/03 06:07:53;;;;;;;4.82;3.05;;;;;;;4.66;100.00;103132.31;5132547;27;20031;-82
2023/05/03 06:10:18;;;;;;;10.57;3.78;;;;;;;4.86;100.00;103136.97;5132072;27;20139;-77
2023/05/03 06:12:44;;;;;;;14.52;6.68;;;;;;;5.07;100.00;103134.59;5132630;27;20087;-80
2023/05/03 06:15:09;;;;;;;15.93;4.65;;;;;;;5.31;100.00;103127.69;5130919;27;20480;-80
2023/05/03 06:17:35;;;;;;;3.90;2.90;;;;;;;5.56;100.00;103130.41;5132096;27;20107;-79
2023/05/03 06:20:00;;;;;;;7.75;3.05;;;;;;;5.71;100.00;103130.81;5132096;27;20033;-81
2023/05/03 06:22:26;;;;;;;7.18;3.05;;;;;;;5.83;100.00;103131.25;5131607;27;20110;-81
2023/05/03 06:24:51;;;;;;;10.27;2.83;;;;;;;5.96;100.00;103128.22;5132212;27;20026;-82
2023/05/03 06:27:17;;;;;;;4.93;3.28;;;;;;;6.15;100.00;103131.09;5131739;27;20023;-81
2023/05/03 06:29:43;;;;;;;7.78;2.75;;;;;;;6.31;100.00;103126.13;5131819;27;20023;-80
2023/05/03 06:32:09;;;;;;;5.43;2.83;;;;;;;6.43;100.00;103122.19;5131262;27;20049;-79
2023/05/03 06:34:35;;;;;;;9.85;2.97;;;;;;;6.55;100.00;103110.28;5131285;27;20027;-78
2023/05/03 06:37:01;;;;;;;7.78;2.70;;;;;;;6.67;100.00;103118.63;5131461;27;20042;-78
2023/05/03 06:39:27;;;;;;;7.07;2.25;;;;;;;6.74;100.00;103113.09;5131189;27;20027;-78
2023/05/03 06:41:52;;;;;;;8.30;2.40;;;;;;;6.84;100.00;103101.25;5131209;27;20051;-77
2023/05/03 06:44:18;;;;;;;4.57;2.17;;;;;;;6.91;100.00;103107.16;5129168;27;20038;-79
2023/05/03 06:46:43;;;;;;;7.40;3.17;;;;;;;7.02;100.00;103100.53;5130767;27;20129;-79
2023/05/03 06:49:08;;;;;;;8.55;2.53;;;;;;;7.15;100.00;103106.19;5130879;27;20051;-81
2023/05/03 06:51:34;;;;;;;3.92;3.00;;;;;;;7.21;100.00;103097.13;5129491;27;20031;-81
2023/05/03 06:54:05;;;;;;;7.07;2.10;;;;;;;7.31;100.00;103098.47;5131371;27;20134;-81
2023/05/03 06:56:34;;;;;;;4.75;1.92;;;;;;;7.44;100.00;103096.19;5130790;27;20053;-82
2023/05/03 06:59:00;;;;;;;9.57;2.05;;;;;;;7.56;100.00;103102.78;5147259;27;20323;-81
2023/05/03 07:01:26;;;;;;;9.43;2.70;;;;;;;7.67;100.00;103100.53;5129495;27;20065;-80
2023/05/03 07:03:51;;;;;;;7.07;1.80;;;;;;;7.73;100.00;103094.09;5131205;27;20023;-78
2023/05/03 07:06:17;;;;;;;4.88;1.70;;;;;;;7.83;100.00;103091.94;5130966;27;20127;-77
2023/05/03 07:08:43;;;;;;;3.67;1.65;;;;;;;7.90;100.00;103096.91;5130982;27;20035;-82
2023/05/03 07:11:09;;;;;;;7.85;1.60;;;;;;;8.00;100.00;103089.44;5131281;27;20113;-79
2023/05/03 07:13:34;;;;;;;5.68;1.33;;;;;;;8.05;100.00;103086.56;5129504;28;20039;-80
2023/05/03 07:16:00;;;;;;;3.65;1.77;;;;;;;8.14;100.00;103087.97;5131162;27;20045;-81
2023/05/03 07:18:25;;;;;;;3.92;1.65;;;;;;;8.30;100.00;103081.88;5131322;27;20035;-77
2023/05/03 07:20:51;;;;;;;5.60;1.40;;;;;;;8.40;100.00;103079.66;5130627;27;20062;-78
2023/05/03 07:23:16;;;;;;;6.13;2.00;;;;;;;8.55;100.00;103082.59;5130483;27;20027;-76
2023/05/03 07:25:42;;;;;;;5.13;1.50;;;;;;;8.64;100.00;103083.03;5129394;28;20095;-73
2023/05/03 07:28:07;;;;;;;8.23;2.65;;;;;;;8.69;100.00;103084.59;5129567;28;20447;-74
2023/05/03 07:30:33;;;;;;;3.28;1.80;;;;;;;8.72;100.00;103072.03;5130815;27;20411;-77
2023/05/03 07:32:58;;;;;;;12.13;2.75;;;;;;;8.88;100.00;103058.03;5130777;27;20027;-82
2023/05/03 07:35:26;;;;;;;7.40;2.03;;;;;;;8.93;100.00;103061.34;5130860;27;20420;-75
2023/05/03 07:37:51;;;;;;;4.72;1.30;;;;;;;9.08;100.00;103055.28;5131243;27;20039;-76
2023/05/03 07:40:17;;;;;;;14.45;1.60;;;;;;;9.24;100.00;103058.03;5129547;28;20031;-76
2023/05/03 07:42:42;;;;;;;5.38;1.70;;;;;;;9.32;100.00;103052.34;5129599;28;20434;-73
2023/05/03 07:45:08;;;;;;;3.45;1.50;;;;;;;9.38;100.00;103059.16;5130644;27;20047;-74
2023/05/03 07:47:36;;;;;;;6.93;1.40;;;;;;;9.46;100.00;103064.94;5130591;27;20131;-74
2023/05/03 07:50:04;;;;;;;6.28;1.52;;;;;;;9.61;100.00;103073.94;5128638;28;20189;-79
2023/05/03 07:52:29;;;;;;;8.98;1.75;;;;;;;9.69;100.00;103069.09;5130605;27;20055;-79
2023/05/03 07:54:55;;;;;;;4.32;1.23;;;;;;;9.77;100.00;103069.53;5130391;27;20490;-80
2023/05/03 07:57:22;;;;;;;8.93;1.63;;;;;;;9.93;100.00;103060.75;5129334;28;20062;-79
2023/05/03 07:59:48;;;;;;;3.05;1.38;;;;;;;10.05;100.00;103057.47;5130779;27;20019;-77
2023/05/03 08:02:13;;;;;;;6.70;1.70;;;;;;;10.19;100.00;103056.72;5131137;27;20038;-81
2023/05/03 08:04:38;;;;;;;4.53;1.90;;;;;;;10.34;100.00;103061.25;5130652;27;20451;-76
2023/05/03 08:07:04;;;;;;;8.40;1.60;;;;;;;10.42;93.14;103068.81;5132968;27;20516;-78
2023/05/03 08:09:29;;;;;;;7.18;2.00;;;;;;;10.63;91.90;103057.91;5133015;27;20041;-77
2023/05/03 08:11:55;;;;;;;9.73;1.55;;;;;;;10.70;84.19;103054.84;5133071;27;20035;-84
2023/05/03 08:14:22;;;;;;;10.25;1.75;;;;;;;11.02;93.30;103052.16;5134398;27;20038;-80
2023/05/03 08:16:47;;;;;;;4.68;1.70;;;;;;;11.30;95.25;103053.25;5134477;27;20044;-76
2023/05/03 08:19:13;;;;;;;9.82;1.90;;;;;;;11.36;89.54;103060.00;5133145;27;20027;-77
2023/05/03 08:21:38;;;;;;;5.47;1.80;;;;;;;11.40;84.54;103058.88;5134254;27;20061;-78
2023/05/03 08:24:08;;;;;;;3.30;1.52;;;;;;;11.53;75.88;103054.53;5132646;27;20106;-73
2023/05/03 08:26:34;;;;;;;6.28;1.73;;;;;;;11.78;74.80;103066.41;5134188;27;20031;-77
2023/05/03 08:29:02;;;;;;;3.53;1.75;;;;;;;12.10;72.22;103071.59;5134217;27;20087;-76
2023/05/03 08:31:27;;;;;;;2.50;1.60;;;;;;;12.48;76.21;103071.00;5132443;27;20125;-74
2023/05/03 08:33:53;;;;;;;5.28;1.70;;;;;;;12.26;69.17;103079.53;5133849;27;20418;-74
2023/05/03 08:36:18;;;;;;;6.30;1.90;;;;;;;11.97;69.99;103079.50;5132574;27;20114;-76
2023/05/03 08:38:43;;;;;;;5.70;1.67;;;;;;;12.31;68.52;103077.41;5133848;27;20080;-76
2023/05/03 08:41:26;;;;;;;6.93;1.60;;;;;;;12.62;64.59;103079.00;5134026;27;20156;-76
2023/05/03 08:43:53;;;;;;;6.38;1.50;;;;;;;12.78;61.78;103070.88;5133823;27;20037;-77
2023/05/03 08:46:19;;;;;;;3.05;1.60;;;;;;;12.98;63.79;103072.25;5133492;27;20058;-75
2023/05/03 08:48:48;;;;;;;6.68;1.77;;;;;;;12.79;59.53;103075.25;5133365;27;20481;-78
2023/05/03 08:51:15;;;;;;;3.63;1.77;;;;;;;13.19;67.35;103077.13;5133197;27;20552;-77
2023/05/03 08:53:40;;;;;;;13.30;1.75;;;;;;;13.42;61.28;103072.09;5133642;27;20141;-78
2023/05/03 08:56:11;;;;;;;3.90;1.50;;;;;;;13.67;59.19;103076.63;5133417;27;20133;-77
2023/05/03 08:58:37;;;;;;;4.00;1.80;;;;;;;13.34;58.48;103073.47;5132874;27;20419;-76
2023/05/03 09:01:07;;;;;;;7.65;1.85;;;;;;;13.40;61.84;103083.78;5131683;27;20035;-77
2023/05/03 09:03:34;;;;;;;5.70;1.70;;;;;;;14.25;58.39;103075.25;5132849;27;20080;-74
2023/05/03 09:06:03;;;;;;;2.47;1.63;;;;;;;14.76;53.54;103068.97;5132898;27;20046;-77
2023/05/03 09:08:30;;;;;;;3.50;1.60;;;;;;;15.70;54.62;103071.78;5131212;27;20096;-78
2023/05/03 09:10:56;;;;;;;3.97;1.80;;;;;;;16.16;49.35;103073.59;5132433;27;20344;-78
2023/05/03 09:13:29;;;;;;;6.28;2.15;;;;;;;16.06;49.24;103064.53;5132753;27;20077;-77
2023/05/03 09:15:56;;;;;;;6.60;2.08;;;;;;;16.42;49.91;103062.63;5132834;27;20118;-82
2023/05/03 09:18:22;;;;;;;6.53;1.50;;;;;;;17.32;46.99;103074.13;5132353;27;20091;-75
2023/05/03 09:20:52;;;;;;;4.60;1.65;;;;;;;17.62;45.17;103068.81;5132694;27;20039;-74
2023/05/03 09:23:29;;;;;;;4.97;1.73;;;;;;;18.20;45.22;103061.19;5132500;27;20059;-75
2023/05/03 09:25:54;;;;;;;2.42;1.40;;;;;;;18.56;42.87;103057.09;5132536;27;20047;-73
2023/05/03 09:28:20;;;;;;;5.85;1.73;;;;;;;18.64;41.13;103062.63;5131959;27;20118;-75
2023/05/03 09:30:47;;;;;;;4.20;1.65;;;;;;;19.20;41.33;103058.47;5132418;27;20035;-79
2023/05/03 09:33:21;;;;;;;5.30;1.67;;;;;;;19.08;40.69;103056.03;5132414;27;20123;-81
2023/05/03 09:35:56;;;;;;;3.25;1.80;;;;;;;19.44;41.93;103050.94;5132186;27;20023;-76
2023/05/03 09:38:29;;;;;;;5.68;2.00;;;;;;;19.55;39.41;103056.97;5132517;27;20054;-75
2023/05/03 09:40:56;;;;;;;4.15;1.70;;;;;;;19.86;38.42;103055.97;5131767;27;20086;-80
2023/05/03 09:43:21;;;;;;;4.22;1.92;;;;;;;20.21;38.48;103051.69;5132180;27;20027;-75
2023/05/03 09:45:47;;;;;;;3.80;1.80;;;;;;;20.05;38.98;103058.59;5132304;27;20083;-79
2023/05/03 09:48:12;;;;;;;6.05;1.90;;;;;;;20.20;38.46;103056.25;5131433;27;20138;-75
2023/05/03 09:50:39;;;;;;;4.97;1.70;;;;;;;20.32;37.30;103059.63;5131940;27;20022;-78
2023/05/03 09:53:06;;;;;;;7.55;2.20;;;;;;;20.10;37.28;103058.16;5131963;27;20126;-74
2023/05/03 09:55:33;;;;;;;6.13;2.05;;;;;;;20.22;37.29;103054.25;5131743;27;20035;-75
2023/05/03 09:57:59;;;;;;;5.82;1.92;;;;;;;19.74;37.17;103063.38;5132023;27;20148;-77
2023/05/03 10:00:25;;;;;;;3.28;1.50;;;;;;;19.74;38.63;103068.75;5131408;27;20023;-76
2023/05/03 10:02:54;;;;;;;7.05;1.67;;;;;;;19.87;36.39;103057.66;5131604;27;20031;-76
2023/05/03 10:05:20;;;;;;;4.68;2.08;;;;;;;20.43;37.24;103059.41;5131946;27;20431;-73
2023/05/03 10:07:50;;;;;;;6.00;2.10;;;;;;;20.59;35.62;103060.63;5132165;27;20027;-75
2023/05/03 10:10:16;;;;;;;6.10;1.85;;;;;;;20.82;37.10;103049.38;5132282;27;20076;-78
2023/05/03 10:12:43;;;;;;;4.25;1.70;;;;;;;20.95;37.05;103048.00;5132288;27;20039;-80
2023/05/03 10:15:12;;;;;;;8.23;1.90;;;;;;;20.94;36.89;103046.31;5132214;27;20460;-76
2023/05/03 10:17:39;;;;;;;6.65;1.83;;;;;;;21.06;35.98;103048.75;5132125;27;20058;-77
2023/05/03 10:20:31;;;;;;;4.68;1.92;;;;;;;20.40;36.53;103051.59;5132340;27;20482;-77
2023/05/03 10:23:07;;;;;;;6.25;2.13;;;;;;;19.58;38.02;103039.66;5131868;27;20035;-77
2023/05/03 10:25:38;;;;;;;10.20;1.90;;;;;;;20.45;36.92;103043.03;5132074;27;20038;-73
2023/05/03 10:28:08;;;;;;;5.30;1.83;;;;;;;20.63;37.30;103039.50;5130222;27;20419;-77
2023/05/03 10:30:39;;;;;;;3.63;2.00;;;;;;;20.68;37.16;103043.50;5131746;27;20027;-81
2023/05/03 10:33:10;;;;;;;6.03;1.90;;;;;;;21.03;36.05;103044.50;5131914;27;20034;-74
2023/05/03 10:35:38;;;;;;;5.13;3.53;;;;;;;21.31;36.12;103034.44;5131389;27;20043;-82
2023/05/03 10:38:13;;;;;;;5.28;1.92;;;;;;;21.49;35.99;103031.69;5130822;27;20092;-76
2023/05/03 10:40:43;;;;;;;6.63;2.08;;;;;;;21.47;35.87;103033.72;5131513;27;20094;-76
2023/05/03 10:43:33;;;;;;;4.82;2.13;;;;;;;21.07;34.95;103031.53;5131535;27;20069;-85
2023/05/03 10:46:03;;;;;;;9.65;1.92;;;;;;;20.90;35.44;103028.69;5130816;27;20039;-76
2023/05/03 10:48:30;;;;;;;;;;;;;;;20.51;37.29;103028.06;5131725;27;20424;-76
2023/05/03 10:50:56;;;;;;;5.35;1.88;;;;;;;20.88;36.71;103033.38;5130781;27;19919;-77
2023/05/03 10:53:36;;;;;;;8.10;2.25;;;;;;;20.94;36.79;103031.91;5131145;27;20102;-73
2023/05/03 10:56:14;;;;;;;4.60;1.98;;;;;;;21.11;35.55;103035.63;5130765;27;20483;-74
2023/05/03 10:58:48;;;;;;;4.40;1.75;;;;;;;20.75;34.20;103022.94;5130948;27;20039;-74
2023/05/03 11:01:16;;;;;;;5.45;2.28;;;;;;;20.03;36.27;103021.91;5131199;27;20023;-78
2023/05/03 11:03:44;;;;;;;6.18;2.30;;;;;;;20.81;37.78;103026.03;5130701;27;20155;-74
2023/05/03 11:06:25;;;;;;;3.72;1.80;;;;;;;20.83;36.08;103021.34;5131173;28;20401;-78
2023/05/03 11:08:50;;;;;;;4.10;2.05;;;;;;;21.72;36.33;103016.78;5130929;27;20047;-80
2023/05/03 11:11:16;;;;;;;3.53;2.28;;;;;;;21.62;32.24;103009.63;5130504;27;20063;-77
2023/05/03 11:13:41;;;;;;;8.88;2.17;;;;;;;21.58;34.14;103007.41;5129217;28;20039;-72
2023/05/03 11:16:07;;;;;;;4.97;2.03;;;;;;;21.89;35.31;103005.03;5130903;27;20051;-76
2023/05/03 11:18:32;;;;;;;3.80;2.10;;;;;;;21.51;35.14;103006.34;5129406;28;20100;-72
2023/05/03 11:20:58;;;;;;;4.93;2.00;;;;;;;22.04;35.82;102990.88;5131217;28;20038;-76
2023/05/03 11:23:26;;;;;;;4.25;2.05;;;;;;;21.84;34.08;102991.97;5131664;27;20041;-75